Time;durP1;ratioP1;P1;durP2;ratioP2;P2;SDS_P1;SDS_P2;PMS_P1;PMS_P2;Temp;Humidity;BMP_temperature;BMP_pressure;BME280_temperature;BME280_humidity;BME280_pressure;Samples;Min_cycle;Max_cycle;Signal;HPM_P1;HPM_P2
2022/01/30 00:00:16;;;;;;;3.33;2.30;;;7.30;99.90;;;;;;4910700;29;20174;-73
2022/01/30 00:02:42;;;;;;;2.73;2.27;;;7.20;99.90;;;;;;4906987;29;20300;-73
2022/01/30 00:05:08;;;;;;;3.03;2.23;;;7.20;99.90;;;;;;4910546;29;20178;-73
2022/01/30 00:07:33;;;;;;;2.90;2.57;;;7.10;99.90;;;;;;4910653;29;20198;-73
2022/01/30 00:09:59;;;;;;;4.40;2.70;;;7.10;99.90;;;;;;4903056;29;20711;-73
2022/01/30 00:15:10;;;;;;;2.57;2.37;;;7.10;99.90;;;;;;4909588;29;20667;-73
2022/01/30 00:17:42;;;;;;;2.63;2.40;;;7.00;99.90;;;;;;4910897;29;20529;-73
2022/01/30 00:20:14;;;;;;;3.77;2.60;;;7.00;99.90;;;;;;4902360;29;20439;-73
2022/01/30 00:23:06;;;;;;;5.27;3.80;;;7.00;99.90;;;;;;4909887;29;20516;-73
2022/01/30 00:25:44;;;;;;;4.20;2.70;;;7.00;99.90;;;;;;4909968;29;20452;-74
2022/01/30 00:28:12;;;;;;;5.17;2.63;;;7.00;99.90;;;;;;4913308;29;20434;-73
2022/01/30 00:30:37;;;;;;;3.47;3.07;;;7.00;99.90;;;;;;4914299;29;20485;-74
2022/01/30 00:33:04;;;;;;;3.87;3.17;;;7.00;99.90;;;;;;4913815;29;20457;-74
2022/01/30 00:35:33;;;;;;;5.33;3.60;;;7.00;99.90;;;;;;4912203;29;20288;-73
2022/01/30 00:37:58;;;;;;;3.07;2.77;;;7.00;99.90;;;;;;4910537;29;20423;-73
2022/01/30 00:40:24;;;;;;;4.37;2.80;;;7.00;99.90;;;;;;4895972;29;20411;-75
2022/01/30 00:42:49;;;;;;;4.10;3.00;;;7.00;99.90;;;;;;4911168;29;20202;-74
2022/01/30 00:45:15;;;;;;;3.60;2.77;;;7.00;99.90;;;;;;4911669;29;20264;-73
2022/01/30 00:47:40;;;;;;;3.67;2.83;;;7.00;99.90;;;;;;4914078;29;20186;-73
2022/01/30 00:50:06;;;;;;;4.13;2.80;;;7.00;99.90;;;;;;4914472;29;20568;-74
2022/01/30 00:52:32;;;;;;;2.80;2.60;;;7.00;99.90;;;;;;4913873;29;20273;-73
2022/01/30 00:54:57;;;;;;;2.90;2.60;;;7.00;99.90;;;;;;4914313;29;20442;-74
2022/01/30 00:57:23;;;;;;;2.90;2.67;;;7.00;99.90;;;;;;4914292;29;20233;-74
2022/01/30 00:59:49;;;;;;;2.70;2.43;;;7.00;99.90;;;;;;4913504;29;20265;-74
2022/01/30 01:02:16;;;;;;;3.20;2.87;;;7.00;99.90;;;;;;4914088;29;20272;-74
2022/01/30 01:04:42;;;;;;;7.03;2.73;;;7.00;99.90;;;;;;4913573;29;20190;-73
2022/01/30 01:07:14;;;;;;;3.07;2.77;;;7.00;99.90;;;;;;4913838;29;20452;-74
2022/01/30 01:09:41;;;;;;;7.00;2.90;;;7.00;99.90;;;;;;4914231;29;20450;-73
2022/01/30 01:25:47;;;;;;;2.67;2.47;;;7.00;99.90;;;;;;4913887;29;20477;-74
2022/01/30 01:28:13;;;;;;;4.27;3.10;;;7.00;99.90;;;;;;4913873;29;20426;-74
2022/01/30 01:30:39;;;;;;;4.17;3.30;;;7.00;99.90;;;;;;4913027;29;20201;-74
2022/01/30 01:33:05;;;;;;;2.90;2.60;;;7.00;99.90;;;;;;4912807;29;20320;-74
2022/01/30 01:35:31;;;;;;;3.10;2.77;;;7.10;99.90;;;;;;4912386;29;20573;-74
2022/01/30 01:37:57;;;;;;;4.57;2.83;;;7.00;99.90;;;;;;4913857;29;20438;-74
2022/01/30 01:40:23;;;;;;;3.90;2.93;;;7.00;99.90;;;;;;4909890;29;20659;-74
2022/01/30 01:42:49;;;;;;;5.00;3.50;;;7.00;99.90;;;;;;4911136;29;20209;-74
2022/01/30 01:45:19;;;;;;;3.73;3.13;;;7.00;99.90;;;;;;4903865;29;20510;-75
2022/01/30 01:47:45;;;;;;;3.50;3.03;;;7.00;99.90;;;;;;4913130;29;20198;-74
2022/01/30 01:50:17;;;;;;;5.33;3.73;;;7.00;99.90;;;;;;4908480;29;20518;-74
2022/01/30 01:52:43;;;;;;;5.03;3.50;;;7.00;99.90;;;;;;4909402;29;20481;-73
2022/01/30 01:55:09;;;;;;;5.10;3.77;;;7.00;99.90;;;;;;4908427;29;20494;-76
2022/01/30 01:57:34;;;;;;;5.20;4.67;;;7.00;99.90;;;;;;4910197;29;20891;-73
2022/01/30 02:00:00;;;;;;;6.47;4.20;;;7.00;99.90;;;;;;4912223;29;20193;-74
2022/01/30 02:02:27;;;;;;;4.93;4.07;;;7.10;99.90;;;;;;4904263;29;20263;-74
2022/01/30 02:04:57;;;;;;;4.40;3.90;;;7.10;99.90;;;;;;4909704;29;20458;-74
2022/01/30 02:10:11;;;;;;;5.57;3.77;;;7.10;99.90;;;;;;4894425;29;20466;-73
2022/01/30 02:12:48;;;;;;;5.97;4.00;;;7.10;99.90;;;;;;4906429;29;20512;-73
2022/01/30 02:15:33;;;;;;;6.97;4.07;;;7.10;99.90;;;;;;4912125;29;20504;-73
2022/01/30 02:23:58;;;;;;;6.07;4.30;;;7.10;99.90;;;;;;4911975;29;20534;-74
2022/01/30 02:26:16;;;;;;;4.87;3.27;;;7.10;99.90;;;;;;4912824;29;20452;-74
2022/01/30 02:28:42;;;;;;;4.63;2.83;;;7.00;99.90;;;;;;4913301;29;20414;-74
2022/01/30 02:31:12;;;;;;;3.57;2.87;;;6.90;99.90;;;;;;4911538;29;20189;-74
2022/01/30 02:33:39;;;;;;;4.17;3.27;;;6.80;99.90;;;;;;4912563;29;20249;-74
2022/01/30 02:36:05;;;;;;;3.33;2.93;;;6.90;99.90;;;;;;4908888;29;20841;-74
2022/01/30 02:38:31;;;;;;;3.67;3.23;;;6.80;99.90;;;;;;4919868;29;20427;-74
2022/01/30 02:40:58;;;;;;;3.50;3.20;;;6.80;99.90;;;;;;4912337;29;20939;-74
2022/01/30 02:43:29;;;;;;;3.20;2.90;;;6.90;99.90;;;;;;4907402;29;20282;-74
2022/01/30 02:46:26;;;;;;;3.90;3.27;;;6.90;99.90;;;;;;4925512;29;20820;-74
2022/01/30 02:48:53;;;;;;;3.87;2.60;;;6.90;99.90;;;;;;4912582;29;20804;-74
2022/01/30 02:51:21;;;;;;;2.80;2.60;;;6.90;99.90;;;;;;4911095;29;20524;-74
2022/01/30 02:53:55;;;;;;;2.80;2.60;;;6.90;99.90;;;;;;4893954;29;20427;-74
2022/01/30 02:56:21;;;;;;;3.77;3.10;;;6.90;99.90;;;;;;4900714;29;20509;-74
2022/01/30 02:58:47;;;;;;;8.23;3.00;;;6.90;99.90;;;;;;4911939;29;20434;-74
2022/01/30 03:01:13;;;;;;;3.60;3.20;;;6.80;99.90;;;;;;4911080;29;20765;-74
2022/01/30 03:03:38;;;;;;;3.83;2.87;;;6.80;99.90;;;;;;4912164;29;20600;-74
2022/01/30 03:06:04;;;;;;;3.33;3.03;;;6.80;99.90;;;;;;4911491;29;20644;-74
2022/01/30 03:08:29;;;;;;;5.93;3.37;;;6.80;99.90;;;;;;4912469;29;20192;-75
2022/01/30 03:10:55;;;;;;;3.40;3.07;;;6.80;99.90;;;;;;4910298;29;20189;-75
2022/01/30 03:13:20;;;;;;;3.60;3.30;;;6.80;99.90;;;;;;4907592;29;20214;-73
2022/01/30 03:15:46;;;;;;;3.53;3.10;;;6.80;99.90;;;;;;4898878;29;20636;-74
2022/01/30 03:18:11;;;;;;;5.00;3.90;;;6.80;99.90;;;;;;4905982;29;20521;-74
2022/01/30 03:20:37;;;;;;;8.90;4.50;;;6.80;99.90;;;;;;4911229;29;20173;-74
2022/01/30 03:23:03;;;;;;;4.77;3.83;;;6.80;99.90;;;;;;4911832;29;20186;-74
2022/01/30 03:25:31;;;;;;;5.70;3.47;;;6.90;99.90;;;;;;4911331;29;20325;-74
2022/01/30 03:27:57;;;;;;;6.90;4.27;;;6.90;99.90;;;;;;4910512;29;20476;-73
2022/01/30 03:30:28;;;;;;;6.20;4.00;;;6.90;99.90;;;;;;4911514;29;20434;-74
2022/01/30 03:32:54;;;;;;;6.67;3.90;;;6.90;99.90;;;;;;4910117;29;20209;-74
2022/01/30 03:35:20;;;;;;;8.67;3.77;;;6.90;99.90;;;;;;4911200;29;20766;-75
2022/01/30 03:37:46;;;;;;;6.00;3.83;;;6.90;99.90;;;;;;4911402;29;20178;-74
2022/01/30 03:40:12;;;;;;;5.07;3.73;;;6.90;99.90;;;;;;4910988;29;20426;-74
2022/01/30 03:42:38;;;;;;;6.30;3.83;;;6.90;99.90;;;;;;4911149;29;20676;-75
2022/01/30 03:45:04;;;;;;;4.60;3.47;;;6.90;99.90;;;;;;4909973;29;20421;-74
2022/01/30 03:47:29;;;;;;;8.10;4.17;;;6.90;99.90;;;;;;4896513;29;20427;-75
2022/01/30 03:49:55;;;;;;;5.47;3.73;;;6.90;99.90;;;;;;4892108;29;20449;-74
2022/01/30 03:52:21;;;;;;;6.83;3.43;;;6.90;99.90;;;;;;4892123;29;20274;-73
2022/01/30 03:54:46;;;;;;;5.90;3.60;;;6.90;99.90;;;;;;4898543;29;20268;-74
2022/01/30 03:57:12;;;;;;;4.30;3.40;;;6.90;99.90;;;;;;4911498;29;20280;-75
2022/01/30 03:59:37;;;;;;;5.83;3.30;;;6.90;99.90;;;;;;4914369;29;20811;-74
2022/01/30 04:02:03;;;;;;;5.07;3.67;;;6.90;99.90;;;;;;4910940;29;20191;-73
2022/01/30 04:04:31;;;;;;;6.73;3.53;;;6.90;99.90;;;;;;4911004;29;20289;-74
2022/01/30 04:06:57;;;;;;;4.97;3.83;;;6.90;99.90;;;;;;4913104;29;20174;-76
2022/01/30 04:09:24;;;;;;;6.23;3.60;;;6.90;99.90;;;;;;4914972;29;20484;-74
2022/01/30 04:11:50;;;;;;;6.60;3.20;;;6.90;99.90;;;;;;4914853;29;20430;-74
2022/01/30 04:14:16;;;;;;;4.37;3.23;;;6.90;99.90;;;;;;4914465;29;20417;-74
2022/01/30 04:16:41;;;;;;;10.53;3.30;;;6.90;99.90;;;;;;4914720;29;20220;-74
2022/01/30 04:19:07;;;;;;;5.07;3.00;;;6.90;99.90;;;;;;4914921;29;20677;-74
2022/01/30 04:21:33;;;;;;;5.00;3.10;;;6.90;99.90;;;;;;4914193;29;20252;-74
2022/01/30 04:23:59;;;;;;;4.60;2.70;;;6.90;99.90;;;;;;4914718;29;20174;-74
2022/01/30 04:26:24;;;;;;;4.80;3.30;;;7.40;99.90;;;;;;4914707;29;20513;-74
2022/01/30 04:28:50;;;;;;;4.90;3.10;;;6.90;99.90;;;;;;4915021;29;20189;-75
2022/01/30 04:31:16;;;;;;;4.77;2.90;;;6.90;99.90;;;;;;4914276;29;20174;-73
2022/01/30 04:33:42;;;;;;;9.67;2.80;;;6.90;99.90;;;;;;4914525;29;20205;-73
2022/01/30 04:36:11;;;;;;;7.87;3.30;;;6.90;99.90;;;;;;4911604;29;20249;-74
2022/01/30 04:39:00;;;;;;;7.00;3.30;;;6.90;99.90;;;;;;4905356;29;20178;-74
2022/01/30 04:55:53;;;;;;;7.60;3.20;;;6.60;99.90;;;;;;4914074;29;20797;-73
2022/01/30 04:58:03;;;;;;;7.63;3.70;;;8.00;99.90;;;;;;4914203;29;20441;-74
2022/01/30 05:00:48;;;;;;;8.30;3.43;;;6.40;99.90;;;;;;4913472;29;20494;-74
2022/01/30 05:03:29;;;;;;;4.47;3.27;;;6.30;99.90;;;;;;4913706;29;20525;-74
2022/01/30 05:06:05;;;;;;;5.83;3.20;;;6.20;99.90;;;;;;4913335;29;20473;-74
2022/01/30 05:08:31;;;;;;;6.37;3.40;;;6.50;99.90;;;;;;4913656;29;20963;-74
2022/01/30 05:10:56;;;;;;;10.00;3.33;;;6.10;99.90;;;;;;4912707;29;20446;-74
2022/01/30 05:13:25;;;;;;;8.00;3.57;;;6.10;99.90;;;;;;4909206;29;20985;-73
2022/01/30 05:15:51;;;;;;;9.20;3.13;;;6.00;99.90;;;;;;4900541;29;20221;-74
2022/01/30 05:18:25;;;;;;;10.43;3.43;;;6.00;99.90;;;;;;4908537;29;20733;-74
2022/01/30 05:20:51;;;;;;;8.47;4.10;;;5.90;99.90;;;;;;4912729;29;20220;-73
2022/01/30 05:23:17;;;;;;;7.60;3.50;;;5.90;99.90;;;;;;4913903;29;20869;-74
2022/01/30 05:25:50;;;;;;;13.17;3.53;;;5.90;99.90;;;;;;4913816;29;20250;-74
2022/01/30 05:28:19;;;;;;;12.00;3.60;;;5.90;99.90;;;;;;4913726;29;20410;-73
2022/01/30 05:30:45;;;;;;;14.63;3.47;;;5.90;99.90;;;;;;4913114;29;20465;-74
2022/01/30 05:33:14;;;;;;;9.33;3.33;;;5.80;99.90;;;;;;4913539;29;20473;-73
2022/01/30 05:35:40;;;;;;;12.80;3.53;;;5.80;99.90;;;;;;4912796;29;20568;-74
2022/01/30 05:38:07;;;;;;;12.83;3.43;;;5.90;99.90;;;;;;4913955;29;20414;-74
2022/01/30 05:40:36;;;;;;;17.20;3.97;;;5.70;99.90;;;;;;4912986;29;20422;-74
2022/01/30 05:43:04;;;;;;;12.93;3.70;;;5.70;99.90;;;;;;4913453;29;20448;-74
2022/01/30 05:48:15;;;;;;;10.53;3.03;;;5.50;99.90;;;;;;4913822;29;20442;-74
2022/01/30 05:50:43;;;;;;;9.57;3.03;;;5.50;99.90;;;;;;4912511;29;20426;-74
2022/01/30 05:53:09;;;;;;;18.40;3.60;;;5.40;99.90;;;;;;4913461;29;20438;-74
2022/01/30 05:55:35;;;;;;;8.90;3.30;;;5.40;99.90;;;;;;4907463;29;20451;-73
2022/01/30 05:58:00;;;;;;;10.47;3.50;;;5.30;99.90;;;;;;4893204;29;20518;-74
2022/01/30 06:00:27;;;;;;;15.83;3.20;;;5.40;99.90;;;;;;4910512;29;20671;-74
2022/01/30 06:02:53;;;;;;;17.33;3.90;;;5.30;99.90;;;;;;4918197;29;20305;-74
2022/01/30 06:05:21;;;;;;;9.77;2.97;;;5.30;99.90;;;;;;4912856;29;20441;-74
2022/01/30 06:07:52;;;;;;;10.40;3.30;;;5.60;99.90;;;;;;4912425;29;20437;-74
2022/01/30 06:10:22;;;;;;;8.37;2.63;;;5.30;99.90;;;;;;4912857;29;20513;-74
2022/01/30 06:12:47;;;;;;;12.07;2.73;;;5.20;99.90;;;;;;4912706;29;20787;-74
2022/01/30 06:15:13;;;;;;;21.33;5.40;;;5.20;99.90;;;;;;4910051;29;20438;-73
2022/01/30 06:17:40;;;;;;;12.23;3.00;;;5.30;99.90;;;;;;4912559;29;20216;-74
2022/01/30 06:20:06;;;;;;;8.03;2.47;;;5.30;99.90;;;;;;4911532;29;20655;-74
2022/01/30 06:22:32;;;;;;;17.73;3.23;;;5.30;99.90;;;;;;4911866;29;20928;-73
2022/01/30 06:24:58;;;;;;;13.93;3.80;;;5.40;99.90;;;;;;4912656;29;20464;-74
2022/01/30 06:27:24;;;;;;;16.33;4.10;;;5.30;99.90;;;;;;4912990;29;20568;-74
2022/01/30 06:29:49;;;;;;;10.17;4.60;;;5.40;99.90;;;;;;4911923;29;20572;-73
2022/01/30 06:32:16;;;;;;;8.80;4.00;;;5.40;99.90;;;;;;4912625;29;20293;-73
2022/01/30 06:34:42;;;;;;;16.07;3.70;;;5.40;99.90;;;;;;4912205;29;20182;-74
2022/01/30 06:37:07;;;;;;;14.83;3.23;;;5.40;99.90;;;;;;4907513;29;20464;-74
2022/01/30 06:39:33;;;;;;;6.70;2.63;;;5.40;99.90;;;;;;4908605;29;20264;-74
2022/01/30 06:41:59;;;;;;;13.60;4.17;;;5.60;99.90;;;;;;4912592;29;20201;-73
2022/01/30 06:44:24;;;;;;;13.60;3.57;;;5.40;99.90;;;;;;4912141;29;20300;-74
2022/01/30 06:46:50;;;;;;;13.63;3.37;;;5.40;99.90;;;;;;4904765;29;20505;-74
2022/01/30 06:49:15;;;;;;;17.63;3.47;;;5.60;99.90;;;;;;4912409;29;20668;-73
2022/01/30 06:51:41;;;;;;;10.90;3.30;;;5.40;99.90;;;;;;4911395;29;20189;-74
2022/01/30 06:54:07;;;;;;;11.93;3.20;;;5.40;99.90;;;;;;4912379;29;20197;-74
2022/01/30 06:56:32;;;;;;;13.53;2.90;;;5.40;99.90;;;;;;4911050;29;20643;-74
2022/01/30 06:58:58;;;;;;;13.27;3.60;;;5.40;99.90;;;;;;4912264;29;20250;-74
2022/01/30 07:01:25;;;;;;;7.40;2.90;;;5.40;99.90;;;;;;4911258;29;20189;-72
2022/01/30 07:03:52;;;;;;;9.20;3.40;;;5.30;99.90;;;;;;4912369;29;20277;-74
2022/01/30 07:06:18;;;;;;;15.60;2.87;;;5.40;99.90;;;;;;4910849;29;20465;-74
2022/01/30 07:08:43;;;;;;;18.00;3.20;;;5.40;99.90;;;;;;4912151;29;20426;-74
2022/01/30 07:11:09;;;;;;;10.03;3.23;;;5.40;99.90;;;;;;4911476;29;20309;-73
2022/01/30 07:13:35;;;;;;;18.73;3.53;;;5.40;99.90;;;;;;4905373;29;20213;-73
2022/01/30 07:16:00;;;;;;;13.90;3.27;;;5.40;99.90;;;;;;4898830;29;20700;-73
2022/01/30 07:18:26;;;;;;;16.97;3.40;;;5.40;99.90;;;;;;4907315;29;20237;-74
2022/01/30 07:20:51;;;;;;;13.80;3.13;;;5.90;99.90;;;;;;4910238;29;20260;-73
2022/01/30 07:23:17;;;;;;;9.93;3.03;;;5.60;99.90;;;;;;4911310;29;20624;-73
2022/01/30 07:25:44;;;;;;;18.57;4.10;;;5.60;99.90;;;;;;4911244;29;20194;-73
2022/01/30 07:28:10;;;;;;;10.53;2.63;;;5.60;99.90;;;;;;4911909;29;20177;-73
2022/01/30 07:30:36;;;;;;;16.70;2.93;;;5.60;99.90;;;;;;4910710;29;20441;-74
2022/01/30 07:33:05;;;;;;;14.20;3.30;;;5.70;99.90;;;;;;4910717;29;20544;-73
2022/01/30 07:35:32;;;;;;;13.73;3.30;;;5.80;99.90;;;;;;4896271;29;20464;-73
2022/01/30 07:37:58;;;;;;;11.60;3.40;;;5.80;99.90;;;;;;4911496;29;20422;-73
2022/01/30 07:40:24;;;;;;;15.33;3.03;;;5.90;99.90;;;;;;4911566;29;20418;-73
2022/01/30 07:42:49;;;;;;;13.17;3.70;;;6.00;99.90;;;;;;4910866;29;20233;-73
2022/01/30 07:45:15;;;;;;;18.43;2.93;;;6.10;99.90;;;;;;4905261;29;20188;-73
2022/01/30 07:47:41;;;;;;;14.23;2.97;;;6.10;99.90;;;;;;4895410;29;20187;-73
2022/01/30 07:50:08;;;;;;;16.30;3.37;;;6.20;99.90;;;;;;4907230;29;20192;-73
2022/01/30 07:52:34;;;;;;;12.37;2.47;;;6.20;99.90;;;;;;4908965;29;20295;-74
2022/01/30 07:55:00;;;;;;;15.80;4.00;;;6.40;99.90;;;;;;4911457;29;20898;-73
2022/01/30 07:57:25;;;;;;;12.02;2.80;;;6.80;99.90;;;;;;4911274;29;20937;-73
2022/01/30 07:59:51;;;;;;;16.20;3.20;;;6.50;99.90;;;;;;4911114;29;20332;-73
2022/01/30 08:02:16;;;;;;;8.20;3.10;;;6.80;99.90;;;;;;4905514;29;20194;-73
2022/01/30 08:04:42;;;;;;;9.17;2.80;;;7.10;99.90;;;;;;4908294;29;20755;-73
2022/01/30 08:07:07;;;;;;;13.43;3.27;;;7.70;99.90;;;;;;4911015;29;20174;-73
2022/01/30 08:09:33;;;;;;;13.40;3.03;;;7.40;99.90;;;;;;4909184;29;20178;-72
2022/01/30 08:11:58;;;;;;;18.03;4.10;;;7.40;99.90;;;;;;4910844;29;20216;-74
2022/01/30 08:14:24;;;;;;;13.60;3.80;;;7.30;99.90;;;;;;4902802;29;20865;-73
2022/01/30 08:16:49;;;;;;;13.20;3.17;;;7.30;99.90;;;;;;4910891;29;20255;-73
2022/01/30 08:19:18;;;;;;;14.23;3.97;;;7.20;99.90;;;;;;4910907;29;20660;-73
2022/01/30 08:21:43;;;;;;;12.97;6.43;;;7.30;99.90;;;;;;4909754;29;21865;-73
2022/01/30 08:24:09;;;;;;;13.60;4.07;;;7.20;99.90;;;;;;4910865;29;20422;-73
2022/01/30 08:26:34;;;;;;;23.53;4.87;;;7.30;99.90;;;;;;4911497;29;20222;-73
2022/01/30 08:29:00;;;;;;;16.20;4.63;;;7.20;99.90;;;;;;4911341;29;20664;-74
2022/01/30 08:31:26;;;;;;;13.80;3.40;;;7.20;99.90;;;;;;4909901;29;20190;-72
2022/01/30 08:33:51;;;;;;;10.93;3.13;;;7.30;99.90;;;;;;4905617;29;20751;-73
2022/01/30 08:36:17;;;;;;;13.93;3.40;;;7.40;99.90;;;;;;4906306;29;20474;-73
2022/01/30 08:38:42;;;;;;;21.67;4.30;;;7.40;99.90;;;;;;4898682;29;20183;-74
2022/01/30 08:41:08;;;;;;;10.50;3.10;;;7.50;99.90;;;;;;4910166;29;20629;-73
2022/01/30 08:43:34;;;;;;;12.90;3.47;;;7.10;99.90;;;;;;4905526;29;20214;-73
2022/01/30 08:46:00;;;;;;;8.03;2.63;;;7.50;99.90;;;;;;4914095;29;20305;-73
2022/01/30 08:48:25;;;;;;;11.90;3.30;;;7.60;99.90;;;;;;4914818;29;20536;-73
2022/01/30 08:50:51;;;;;;;6.70;2.30;;;7.70;99.90;;;;;;4911720;29;20422;-74
2022/01/30 08:53:17;;;;;;;8.40;2.67;;;7.70;99.90;;;;;;4908993;29;20495;-74
2022/01/30 08:55:43;;;;;;;8.60;2.40;;;7.70;99.90;;;;;;4905496;29;20194;-73
2022/01/30 08:58:09;;;;;;;8.00;2.67;;;7.80;99.90;;;;;;4915213;29;20264;-74
2022/01/30 09:00:36;;;;;;;12.97;2.70;;;7.90;99.90;;;;;;4913931;29;20586;-74
2022/01/30 09:03:04;;;;;;;7.80;2.20;;;8.00;99.90;;;;;;4914236;29;20205;-74
2022/01/30 09:05:30;;;;;;;9.93;2.70;;;8.00;99.90;;;;;;4908011;29;20734;-73
2022/01/30 09:07:56;;;;;;;11.90;2.67;;;8.10;99.90;;;;;;4914981;29;20525;-73
2022/01/30 09:10:22;;;;;;;10.10;3.10;;;8.20;99.90;;;;;;4914400;29;20414;-74
2022/01/30 09:12:47;;;;;;;13.80;3.00;;;8.30;99.90;;;;;;4914829;29;20489;-74
2022/01/30 09:15:15;;;;;;;15.50;3.97;;;8.40;99.90;;;;;;4908658;29;20185;-74
2022/01/30 09:17:41;;;;;;;7.27;2.20;;;8.50;99.90;;;;;;4904178;29;20225;-74
2022/01/30 09:20:07;;;;;;;10.73;2.47;;;8.40;99.90;;;;;;4914360;29;20512;-74
2022/01/30 09:22:33;;;;;;;10.73;2.73;;;8.40;99.90;;;;;;4914050;29;20425;-74
2022/01/30 09:24:59;;;;;;;13.67;2.67;;;8.40;99.90;;;;;;4914766;29;20915;-74
2022/01/30 09:27:25;;;;;;;9.47;2.70;;;8.50;99.90;;;;;;4914502;29;20213;-73
2022/01/30 09:29:50;;;;;;;12.23;2.57;;;8.50;99.90;;;;;;4913979;29;20185;-73
2022/01/30 09:32:17;;;;;;;10.90;2.40;;;8.60;99.90;;;;;;4914456;29;20194;-74
2022/01/30 09:34:43;;;;;;;11.17;2.63;;;8.70;99.90;;;;;;4914061;29;20174;-73
2022/01/30 09:37:09;;;;;;;8.77;2.23;;;8.70;99.90;;;;;;4912471;29;20991;-74
2022/01/30 09:39:36;;;;;;;10.60;3.20;;;8.90;99.90;;;;;;4913023;29;20687;-74
2022/01/30 09:42:02;;;;;;;11.23;2.50;;;9.00;99.90;;;;;;4914321;29;20817;-74
2022/01/30 09:44:29;;;;;;;10.70;2.17;;;9.30;99.90;;;;;;4913748;29;21279;-74
2022/01/30 09:46:54;;;;;;;7.13;2.20;;;9.40;99.90;;;;;;4906641;29;21020;-74
2022/01/30 09:49:23;;;;;;;9.40;2.00;;;9.20;99.90;;;;;;4903298;29;20458;-74
2022/01/30 09:51:52;;;;;;;8.30;2.30;;;9.10;99.90;;;;;;4910606;29;20201;-74
2022/01/30 09:54:17;;;;;;;11.10;2.40;;;9.20;99.90;;;;;;4912518;29;20813;-74
2022/01/30 09:56:43;;;;;;;8.00;2.23;;;10.00;99.90;;;;;;4913414;29;20544;-74
2022/01/30 09:59:08;;;;;;;4.97;2.30;;;11.60;99.90;;;;;;4909780;29;20197;-74
2022/01/30 10:01:37;;;;;;;6.77;2.70;;;11.70;99.90;;;;;;4913544;29;20193;-74
2022/01/30 10:04:04;;;;;;;11.37;2.70;;;11.60;99.90;;;;;;4913725;29;20273;-73
2022/01/30 10:06:36;;;;;;;10.93;2.33;;;10.90;99.90;;;;;;4913151;29;20816;-74
2022/01/30 10:09:24;;;;;;;9.23;2.10;;;10.40;99.90;;;;;;4914071;29;20490;-75
2022/01/30 10:12:00;;;;;;;8.83;2.30;;;10.10;99.90;;;;;;4912359;29;20449;-76
2022/01/30 10:14:26;;;;;;;5.97;2.07;;;9.90;99.90;;;;;;4912901;29;20508;-74
2022/01/30 10:16:52;;;;;;;6.47;2.20;;;10.00;99.90;;;;;;4905330;29;20538;-73
2022/01/30 10:19:20;;;;;;;12.03;2.67;;;10.00;99.90;;;;;;4913410;29;20521;-74
2022/01/30 10:22:08;;;;;;;14.97;2.23;;;9.90;99.90;;;;;;4912300;29;20246;-73
2022/01/30 10:24:40;;;;;;;9.23;2.33;;;10.10;99.90;;;;;;4913178;29;20413;-73
2022/01/30 10:27:21;;;;;;;6.20;1.93;;;10.20;99.90;;;;;;4898046;29;20414;-74
2022/01/30 10:30:00;;;;;;;8.70;2.20;;;10.30;99.90;;;;;;4913034;29;20974;-74
2022/01/30 10:32:26;;;;;;;6.50;2.00;;;10.40;99.90;;;;;;4913093;29;20437;-74
2022/01/30 10:34:57;;;;;;;7.60;2.30;;;10.80;99.90;;;;;;4912956;29;20422;-74
2022/01/30 10:37:24;;;;;;;7.70;2.30;;;11.40;99.90;;;;;;4909715;29;21078;-74
2022/01/30 10:39:59;;;;;;;4.30;1.60;;;11.70;99.90;;;;;;4895567;29;20838;-74
2022/01/30 10:42:41;;;;;;;6.60;2.03;;;11.80;99.90;;;;;;4894236;29;20434;-73
2022/01/30 10:45:11;;;;;;;5.20;1.80;;;12.60;99.90;;;;;;4905759;29;20940;-74
2022/01/30 10:47:37;;;;;;;5.50;1.90;;;13.80;99.90;;;;;;4898918;29;20435;-74
2022/01/30 10:50:12;;;;;;;6.50;2.13;;;14.90;99.90;;;;;;4894012;29;20491;-74
2022/01/30 10:52:56;;;;;;;6.70;2.17;;;15.70;99.90;;;;;;4893662;29;20510;-74
2022/01/30 10:55:39;;;;;;;6.10;2.33;;;17.70;99.90;;;;;;4892359;29;21195;-74
2022/01/30 10:58:06;;;;;;;6.07;2.13;;;18.90;99.90;;;;;;4903929;29;20465;-75
2022/01/30 11:00:38;;;;;;;7.60;2.13;;;19.40;99.90;;;;;;4912388;29;20789;-74
2022/01/30 11:03:04;;;;;;;5.20;2.10;;;21.40;99.90;;;;;;4912903;29;20440;-75
2022/01/30 11:05:30;;;;;;;7.63;2.87;;;21.50;99.90;;;;;;4911644;29;20961;-74
2022/01/30 11:07:56;;;;;;;7.57;2.50;;;21.90;99.90;;;;;;4912685;29;20186;-75
2022/01/30 11:10:25;;;;;;;7.40;2.10;;;21.50;99.90;;;;;;4912635;29;20174;-75
2022/01/30 11:13:07;;;;;;;6.97;2.40;;;20.90;99.90;;;;;;4911266;29;20804;-75
2022/01/30 11:15:37;;;;;;;4.33;2.00;;;20.30;99.90;;;;;;4903114;29;20434;-74
2022/01/30 11:18:05;;;;;;;5.60;2.50;;;21.10;99.90;;;;;;4904744;29;20840;-75
2022/01/30 11:20:32;;;;;;;6.17;2.40;;;22.10;99.90;;;;;;4911506;29;20468;-74
2022/01/30 11:23:01;;;;;;;6.80;1.97;;;23.30;99.90;;;;;;4912405;29;20437;-74
2022/01/30 11:25:33;;;;;;;6.47;2.20;;;23.20;99.90;;;;;;4912448;29;20422;-75
2022/01/30 11:28:01;;;;;;;10.23;2.40;;;23.70;99.90;;;;;;4912651;29;20919;-74
2022/01/30 11:30:27;;;;;;;6.20;2.13;;;23.10;99.90;;;;;;4911988;29;20520;-75
2022/01/30 11:32:54;;;;;;;6.50;2.13;;;19.90;99.90;;;;;;4912298;29;20506;-75
2022/01/30 11:35:19;;;;;;;8.57;2.50;;;18.50;99.90;;;;;;4912144;29;20423;-74
2022/01/30 11:37:45;;;;;;;7.50;2.30;;;17.20;99.90;;;;;;4911847;29;20462;-75
2022/01/30 11:40:17;;;;;;;8.50;2.57;;;16.00;99.90;;;;;;4912334;29;20266;-74
2022/01/30 11:42:45;;;;;;;10.03;2.90;;;16.00;99.90;;;;;;4910453;29;20482;-74
2022/01/30 11:45:29;;;;;;;7.00;2.43;;;15.60;99.90;;;;;;4906869;29;20422;-74
2022/01/30 11:47:58;;;;;;;6.10;2.13;;;14.90;99.90;;;;;;4911458;29;20435;-74
2022/01/30 11:50:34;;;;;;;5.10;2.03;;;17.20;99.90;;;;;;4912138;29;20767;-75
2022/01/30 11:53:05;;;;;;;4.73;1.80;;;16.60;99.90;;;;;;4912062;29;20447;-74
2022/01/30 11:55:50;;;;;;;6.33;1.90;;;17.40;99.90;;;;;;4911818;29;20440;-74
2022/01/30 11:58:46;;;;;;;7.13;2.13;;;18.70;99.90;;;;;;4893470;29;20437;-74
2022/01/30 12:01:25;;;;;;;6.80;2.20;;;18.50;99.90;;;;;;4903847;29;20823;-74
2022/01/30 12:04:03;;;;;;;4.83;1.80;;;17.00;99.90;;;;;;4903787;29;20411;-74
2022/01/30 12:06:37;;;;;;;5.30;1.90;;;16.70;99.90;;;;;;4906499;29;20987;-75
2022/01/30 12:09:17;;;;;;;6.20;2.10;;;17.00;99.90;;;;;;4892124;29;20868;-74
2022/01/30 12:11:54;;;;;;;4.80;1.83;;;15.30;99.90;;;;;;4911384;29;20503;-75
2022/01/30 12:14:20;;;;;;;4.60;2.00;;;15.10;99.90;;;;;;4905108;29;20414;-74
2022/01/30 12:16:56;;;;;;;7.80;2.20;;;14.30;99.90;;;;;;4905495;29;20518;-75
2022/01/30 12:19:31;;;;;;;7.40;2.00;;;13.50;99.90;;;;;;4909490;29;20197;-74
2022/01/30 12:22:23;;;;;;;7.30;2.00;;;13.20;99.90;;;;;;4915152;29;20538;-74
2022/01/30 12:25:12;;;;;;;7.83;2.40;;;13.40;99.90;;;;;;4913887;29;20616;-74
2022/01/30 12:27:55;;;;;;;4.87;2.17;;;14.40;99.90;;;;;;4915500;29;20433;-74
2022/01/30 12:30:35;;;;;;;9.93;2.87;;;14.80;99.90;;;;;;4914264;29;20472;-74
2022/01/30 12:33:02;;;;;;;7.20;2.20;;;16.10;99.90;;;;;;4909781;29;20502;-74
2022/01/30 12:35:28;;;;;;;5.77;2.00;;;16.30;99.90;;;;;;4896549;29;20424;-73
2022/01/30 12:37:54;;;;;;;7.83;2.33;;;17.70;99.90;;;;;;4925847;29;20459;-74
2022/01/30 12:40:21;;;;;;;7.63;2.47;;;16.80;99.90;;;;;;4895948;29;20415;-74
2022/01/30 12:42:47;;;;;;;11.40;2.40;;;15.90;99.90;;;;;;4895494;29;20241;-74
2022/01/30 12:45:15;;;;;;;4.77;2.37;;;15.90;99.90;;;;;;4922485;29;20884;-74
2022/01/30 12:47:56;;;;;;;5.90;1.97;;;15.50;99.90;;;;;;4909813;29;20516;-74
2022/01/30 12:50:25;;;;;;;7.77;2.30;;;14.70;99.90;;;;;;4913442;29;20927;-74
2022/01/30 12:52:53;;;;;;;5.53;1.83;;;13.60;99.90;;;;;;4914940;29;20449;-74
2022/01/30 12:55:20;;;;;;;11.80;2.37;;;13.30;99.90;;;;;;4915124;29;20470;-74
2022/01/30 12:57:47;;;;;;;5.37;2.50;;;12.90;99.90;;;;;;4914986;29;20473;-74
2022/01/30 13:00:15;;;;;;;5.27;2.23;;;12.70;99.90;;;;;;4914634;29;20469;-74
2022/01/30 13:02:55;;;;;;;8.40;2.40;;;13.00;99.90;;;;;;4914811;29;20885;-74
2022/01/30 13:05:21;;;;;;;8.63;2.80;;;13.20;99.90;;;;;;4913234;29;20415;-74
2022/01/30 13:07:55;;;;;;;4.60;2.13;;;13.80;99.90;;;;;;4914898;29;20429;-74
2022/01/30 13:10:21;;;;;;;6.23;2.63;;;16.40;99.90;;;;;;4914995;29;20616;-74
2022/01/30 13:12:48;;;;;;;6.70;2.40;;;19.90;99.90;;;;;;4914993;29;20614;-74
2022/01/30 13:15:22;;;;;;;6.40;3.00;;;20.50;99.90;;;;;;4908708;29;20439;-74
2022/01/30 13:17:49;;;;;;;6.67;2.93;;;19.70;99.90;;;;;;4906572;29;20516;-74
2022/01/30 13:20:15;;;;;;;9.53;3.17;;;18.00;99.90;;;;;;4912935;29;20425;-74
2022/01/30 13:22:44;;;;;;;11.30;2.80;;;16.10;99.90;;;;;;4914203;29;20804;-74
2022/01/30 13:25:15;;;;;;;6.80;2.60;;;15.40;99.90;;;;;;4914371;29;20182;-74
2022/01/30 13:27:46;;;;;;;9.93;2.13;;;14.20;99.90;;;;;;4914877;29;20414;-74
2022/01/30 13:30:21;;;;;;;6.03;2.20;;;13.30;99.90;;;;;;4913405;29;20497;-74
2022/01/30 13:32:46;;;;;;;10.50;2.70;;;13.10;99.90;;;;;;4914563;29;20749;-74
2022/01/30 13:35:14;;;;;;;9.90;3.53;;;12.90;99.90;;;;;;4914026;29;20498;-74
2022/01/30 13:37:41;;;;;;;6.33;2.23;;;12.70;99.90;;;;;;4914487;29;20560;-75